createdAt,value
2018-05-27T00:00:10.097Z,15.20
2018-05-27T00:02:38.466Z,15.10
2018-05-27T00:05:06.064Z,15.00
2018-05-27T00:07:34.446Z,14.90
2018-05-27T00:10:02.805Z,14.90
2018-05-27T00:12:30.402Z,14.80
2018-05-27T00:14:58.019Z,14.90
2018-05-27T00:17:25.622Z,14.90
2018-05-27T00:19:53.242Z,14.80
2018-05-27T00:22:20.825Z,14.80
2018-05-27T00:24:48.421Z,14.80
2018-05-27T00:27:16.031Z,14.70
2018-05-27T00:29:43.963Z,14.70
2018-05-27T00:32:11.574Z,14.60
2018-05-27T00:34:39.169Z,14.60
2018-05-27T00:37:07.522Z,14.60
2018-05-27T00:39:35.123Z,14.50
2018-05-27T00:42:02.705Z,14.60
2018-05-27T00:44:30.332Z,14.50
2018-05-27T00:46:57.927Z,14.40
2018-05-27T00:49:25.524Z,14.40
2018-05-27T00:51:53.135Z,14.40
2018-05-27T00:54:20.735Z,14.40
2018-05-27T00:56:48.350Z,14.40
2018-05-27T00:59:15.937Z,14.40
2018-05-27T01:01:44.327Z,14.30
2018-05-27T01:04:12.683Z,14.30
2018-05-27T01:06:40.277Z,14.20
2018-05-27T01:09:07.891Z,14.30
2018-05-27T01:11:35.474Z,14.20
2018-05-27T01:14:03.087Z,14.30
2018-05-27T01:16:30.682Z,14.30
2018-05-27T01:18:59.041Z,14.30
2018-05-27T01:21:26.710Z,14.20
2018-05-27T01:23:54.287Z,14.20
2018-05-27T01:26:21.905Z,14.10
2018-05-27T01:28:49.493Z,14.20
2018-05-27T01:31:17.086Z,14.10
2018-05-27T01:33:44.698Z,14.10
2018-05-27T01:36:12.290Z,14.00
2018-05-27T01:38:39.922Z,14.00
2018-05-27T01:41:07.519Z,14.00
2018-05-27T01:43:35.103Z,14.00
2018-05-27T01:46:02.709Z,14.00
2018-05-27T01:48:30.298Z,14.00
2018-05-27T01:50:57.938Z,14.00
2018-05-27T01:53:25.574Z,13.90
2018-05-27T01:55:53.158Z,13.80
2018-05-27T01:58:20.766Z,13.90
2018-05-27T02:00:49.111Z,13.90
2018-05-27T02:03:16.698Z,13.80
2018-05-27T02:05:44.323Z,13.80
2018-05-27T02:08:11.919Z,13.80
2018-05-27T02:10:39.506Z,13.80
2018-05-27T02:13:07.126Z,13.80
2018-05-27T02:15:34.711Z,13.70
2018-05-27T02:18:02.301Z,13.70
2018-05-27T02:20:29.921Z,13.70
2018-05-27T02:22:57.523Z,13.60
2018-05-27T02:25:25.177Z,13.70
2018-05-27T02:27:53.549Z,13.60
2018-05-27T02:30:21.135Z,13.50
2018-05-27T02:32:49.487Z,13.50
2018-05-27T02:35:17.098Z,13.40
2018-05-27T02:37:45.446Z,13.40
2018-05-27T02:40:13.042Z,13.40
2018-05-27T02:42:40.662Z,13.40
2018-05-27T02:45:08.246Z,13.40
2018-05-27T02:47:35.839Z,13.40
2018-05-27T02:50:03.442Z,13.40
2018-05-27T02:52:31.047Z,13.30
2018-05-27T02:54:58.639Z,13.30
2018-05-27T02:57:26.305Z,13.30
2018-05-27T02:59:55.375Z,13.40
2018-05-27T03:02:22.964Z,13.40
2018-05-27T03:04:51.350Z,13.30
2018-05-27T03:07:18.930Z,13.20
2018-05-27T03:09:47.282Z,13.20
2018-05-27T03:12:14.907Z,13.20
2018-05-27T03:14:42.490Z,13.20
2018-05-27T03:17:10.065Z,13.10
2018-05-27T03:19:37.679Z,13.10
2018-05-27T03:22:05.272Z,13.10
2018-05-27T03:24:32.862Z,13.20
2018-05-27T03:27:01.254Z,13.20
2018-05-27T03:29:28.875Z,13.10
2018-05-27T03:31:56.461Z,13.20
2018-05-27T03:34:24.084Z,13.20
2018-05-27T03:36:51.683Z,13.20
2018-05-27T03:39:19.275Z,13.30
2018-05-27T03:41:46.890Z,13.30
2018-05-27T03:44:15.236Z,13.30
2018-05-27T03:46:42.839Z,13.30
2018-05-27T03:49:10.449Z,13.40
2018-05-27T03:51:38.034Z,13.40
2018-05-27T03:54:05.627Z,13.40
2018-05-27T03:56:33.251Z,13.50
2018-05-27T03:59:01.602Z,13.60
2018-05-27T04:01:29.201Z,13.50
2018-05-27T04:04:08.595Z,13.70
2018-05-27T04:06:48.150Z,13.80
2018-05-27T04:09:15.770Z,13.90
2018-05-27T04:11:43.379Z,14.00
2018-05-27T04:14:10.968Z,14.10
2018-05-27T04:16:38.593Z,14.20
2018-05-27T04:19:06.186Z,14.40
2018-05-27T04:21:34.542Z,14.60
2018-05-27T04:24:02.163Z,14.60
2018-05-27T04:26:29.750Z,14.80
2018-05-27T04:28:57.352Z,14.90
2018-05-27T04:31:24.979Z,15.10
2018-05-27T04:33:53.322Z,15.50
2018-05-27T04:36:20.878Z,15.40
2018-05-27T04:38:48.470Z,15.80
2018-05-27T04:41:16.026Z,16.00
2018-05-27T04:43:43.597Z,16.20
2018-05-27T04:46:11.181Z,16.50
2018-05-27T04:48:38.751Z,16.60
2018-05-27T04:51:06.305Z,16.60
2018-05-27T04:53:34.653Z,16.70
2018-05-27T04:56:02.218Z,16.60
2018-05-27T04:58:29.782Z,16.70
2018-05-27T05:00:57.383Z,16.70
2018-05-27T05:03:24.951Z,16.40
2018-05-27T05:05:52.517Z,16.20
2018-05-27T05:08:20.910Z,16.20
2018-05-27T05:10:48.470Z,16.10
2018-05-27T05:13:16.030Z,16.30
2018-05-27T05:15:43.633Z,16.70
2018-05-27T05:18:11.190Z,17.10
2018-05-27T05:20:38.755Z,17.30
2018-05-27T05:23:06.338Z,17.60
2018-05-27T05:25:33.898Z,17.80
2018-05-27T05:28:01.455Z,17.90
2018-05-27T05:30:29.052Z,18.00
2018-05-27T05:32:56.955Z,18.10
2018-05-27T05:35:24.516Z,18.20
2018-05-27T05:37:52.103Z,18.20
2018-05-27T05:40:19.661Z,18.20
2018-05-27T05:42:47.222Z,18.40
2018-05-27T05:45:15.141Z,18.50
2018-05-27T05:47:43.467Z,18.90
2018-05-27T05:50:11.036Z,18.90
2018-05-27T05:52:38.659Z,19.20
2018-05-27T05:55:06.214Z,19.40
2018-05-27T05:57:33.779Z,19.60
2018-05-27T06:00:01.370Z,19.90
2018-05-27T06:02:28.999Z,19.90
2018-05-27T06:04:56.577Z,20.00
2018-05-27T06:07:24.215Z,19.90
2018-05-27T06:09:52.543Z,19.90
2018-05-27T06:12:20.115Z,19.80
2018-05-27T06:14:47.708Z,19.90
2018-05-27T06:17:15.280Z,19.80
2018-05-27T06:19:42.875Z,19.90
2018-05-27T06:22:10.717Z,20.00
2018-05-27T06:24:38.283Z,19.90
2018-05-27T06:27:05.841Z,19.40
2018-05-27T06:29:33.421Z,19.30
2018-05-27T06:32:01.029Z,19.40
2018-05-27T06:34:28.594Z,19.50
2018-05-27T06:36:56.182Z,19.60
2018-05-27T06:39:23.750Z,19.50
2018-05-27T06:41:51.302Z,19.60
2018-05-27T06:44:18.901Z,19.60
2018-05-27T06:46:46.463Z,19.10
2018-05-27T06:49:14.018Z,18.90
2018-05-27T06:51:41.607Z,18.70
2018-05-27T06:54:09.157Z,18.90
2018-05-27T06:56:36.720Z,18.90
2018-05-27T06:59:04.310Z,18.80
2018-05-27T07:01:31.874Z,18.80
2018-05-27T07:03:59.438Z,18.80
2018-05-27T07:06:27.029Z,18.80
2018-05-27T07:08:54.584Z,18.60
2018-05-27T07:11:22.147Z,18.60
2018-05-27T07:13:50.508Z,18.50
2018-05-27T07:16:18.066Z,18.40
2018-05-27T07:18:45.618Z,18.50
2018-05-27T07:21:13.207Z,18.60
2018-05-27T07:23:40.766Z,18.60
2018-05-27T07:26:08.323Z,18.70
2018-05-27T07:28:35.907Z,18.70
2018-05-27T07:31:03.470Z,18.70
2018-05-27T07:33:31.033Z,18.70
2018-05-27T07:35:58.636Z,18.70
2018-05-27T07:38:26.212Z,18.80
2018-05-27T07:40:53.786Z,18.80
2018-05-27T07:43:21.408Z,18.80
2018-05-27T07:45:48.974Z,18.90
2018-05-27T07:48:17.314Z,19.00
2018-05-27T07:50:44.909Z,19.00
2018-05-27T07:53:12.471Z,19.10
2018-05-27T07:55:40.045Z,19.20
2018-05-27T07:58:07.632Z,19.20
2018-05-27T08:00:35.206Z,19.20
2018-05-27T08:03:02.778Z,19.00
2018-05-27T08:05:30.407Z,18.60
2018-05-27T08:07:57.988Z,18.30
2018-05-27T08:10:25.563Z,18.10
2018-05-27T08:12:53.154Z,18.20
2018-05-27T08:15:20.714Z,18.10
2018-05-27T08:17:48.266Z,18.00
2018-05-27T08:20:16.000Z,18.00
2018-05-27T08:22:44.360Z,18.20
2018-05-27T08:25:11.926Z,18.20
2018-05-27T08:27:39.528Z,18.30
2018-05-27T08:30:07.092Z,18.30
2018-05-27T08:32:34.655Z,18.40
2018-05-27T08:35:02.315Z,18.50
2018-05-27T08:37:30.607Z,18.50
2018-05-27T08:39:58.173Z,18.50
2018-05-27T08:42:25.775Z,18.60
2018-05-27T08:44:53.329Z,18.70
2018-05-27T08:47:20.887Z,18.70
2018-05-27T08:49:48.474Z,18.70
2018-05-27T08:52:16.065Z,18.70
2018-05-27T08:54:43.627Z,18.70
2018-05-27T08:57:11.230Z,18.70
2018-05-27T08:59:39.558Z,18.70
2018-05-27T09:02:07.118Z,18.60
2018-05-27T09:04:34.715Z,18.90
2018-05-27T09:07:02.271Z,19.00
2018-05-27T09:09:29.834Z,19.10
2018-05-27T09:11:57.449Z,19.20
2018-05-27T09:14:25.021Z,19.30
2018-05-27T09:16:52.597Z,19.40
2018-05-27T09:19:20.197Z,19.60
2018-05-27T09:21:48.535Z,19.70
2018-05-27T09:24:16.095Z,19.70
2018-05-27T09:26:43.684Z,19.90
2018-05-27T09:29:11.246Z,20.00
2018-05-27T09:31:38.814Z,20.20
2018-05-27T09:34:06.894Z,20.30
2018-05-27T09:36:34.459Z,20.40
2018-05-27T09:39:02.820Z,20.50
2018-05-27T09:41:30.444Z,20.50
2018-05-27T09:43:58.012Z,20.50
2018-05-27T09:46:25.584Z,20.60
2018-05-27T09:48:53.517Z,20.70
2018-05-27T09:51:21.177Z,20.80
2018-05-27T09:53:48.721Z,20.90
2018-05-27T09:56:16.323Z,21.10
2018-05-27T09:58:43.928Z,21.20
2018-05-27T10:01:12.267Z,21.50
2018-05-27T10:03:39.871Z,21.50
2018-05-27T10:06:07.433Z,21.70
2018-05-27T10:08:34.999Z,21.90
2018-05-27T10:11:02.602Z,22.20
2018-05-27T10:13:30.167Z,22.40
2018-05-27T10:15:58.588Z,22.70
2018-05-27T10:18:26.659Z,22.70
2018-05-27T10:20:54.997Z,23.10
2018-05-27T10:23:22.558Z,23.00
2018-05-27T10:25:50.235Z,23.30
2018-05-27T10:28:18.059Z,23.40
2018-05-27T10:30:45.637Z,23.90
2018-05-27T10:33:13.217Z,24.20
2018-05-27T10:35:41.548Z,24.70
2018-05-27T10:38:09.350Z,24.60
2018-05-27T10:40:36.974Z,24.90
2018-05-27T10:43:05.310Z,25.00
2018-05-27T10:45:33.004Z,24.90
2018-05-27T10:48:00.646Z,24.90
2018-05-27T10:50:28.264Z,25.10
2018-05-27T10:52:56.596Z,25.70
2018-05-27T10:55:24.196Z,25.60
2018-05-27T10:57:51.847Z,26.20
2018-05-27T11:00:19.478Z,26.60
2018-05-27T11:02:47.073Z,27.10
2018-05-27T11:05:15.399Z,27.80
2018-05-27T11:07:43.221Z,27.80
2018-05-27T11:10:11.610Z,28.40
2018-05-27T11:12:39.163Z,28.30
2018-05-27T11:15:06.728Z,28.60
2018-05-27T11:17:34.344Z,28.80
2018-05-27T11:20:02.683Z,29.00
2018-05-27T11:22:30.283Z,28.90
2018-05-27T11:24:57.899Z,29.30
2018-05-27T11:27:25.470Z,29.50
2018-05-27T11:29:53.459Z,29.70
2018-05-27T11:32:21.028Z,30.00
2018-05-27T11:34:48.598Z,29.90
2018-05-27T11:37:16.227Z,29.40
2018-05-27T11:39:44.608Z,28.60
2018-05-27T11:42:12.161Z,28.50
2018-05-27T11:44:39.722Z,28.50
2018-05-27T11:47:07.320Z,28.30
2018-05-27T11:49:34.919Z,28.30
2018-05-27T11:52:02.490Z,28.20
2018-05-27T11:54:30.114Z,28.10
2018-05-27T11:56:57.677Z,28.00
2018-05-27T11:59:25.239Z,27.90
2018-05-27T12:01:53.594Z,28.10
2018-05-27T12:04:21.171Z,28.00
2018-05-27T12:06:48.751Z,28.10
2018-05-27T12:09:16.464Z,27.90
2018-05-27T12:11:43.914Z,27.70
2018-05-27T12:14:11.478Z,27.50
2018-05-27T12:16:39.067Z,27.40
2018-05-27T12:19:07.390Z,27.20
2018-05-27T12:21:34.968Z,27.10
2018-05-27T12:24:02.640Z,27.00
2018-05-27T12:26:30.206Z,26.80
2018-05-27T12:28:57.776Z,26.80
2018-05-27T12:31:25.361Z,26.60
2018-05-27T12:33:52.910Z,26.50
2018-05-27T12:36:20.472Z,26.40
2018-05-27T12:38:48.067Z,26.40
2018-05-27T12:41:15.624Z,26.40
2018-05-27T12:43:43.178Z,26.30
2018-05-27T12:46:11.522Z,26.40
2018-05-27T12:48:39.078Z,26.30
2018-05-27T12:51:06.760Z,26.60
2018-05-27T12:53:34.280Z,26.80
2018-05-27T12:56:02.607Z,27.10
2018-05-27T12:58:30.186Z,27.00
2018-05-27T13:00:57.758Z,27.20
2018-05-27T13:03:25.311Z,27.20
2018-05-27T13:05:52.935Z,27.10
2018-05-27T13:08:20.491Z,27.00
2018-05-27T13:10:48.095Z,27.30
2018-05-27T13:13:15.695Z,27.60
2018-05-27T13:15:43.298Z,27.60
2018-05-27T13:18:10.882Z,27.40
2018-05-27T13:20:38.446Z,27.40
2018-05-27T13:23:06.118Z,27.30
2018-05-27T13:25:33.743Z,27.30
2018-05-27T13:28:02.094Z,27.40
2018-05-27T13:30:29.750Z,27.40
2018-05-27T13:32:57.334Z,27.40
2018-05-27T13:35:25.046Z,27.30
2018-05-27T13:37:52.667Z,27.30
2018-05-27T13:40:20.235Z,27.50
2018-05-27T13:42:47.783Z,27.40
2018-05-27T13:45:15.371Z,27.40
2018-05-27T13:47:43.682Z,27.20
2018-05-27T13:50:11.232Z,27.20
2018-05-27T13:52:39.582Z,27.20
2018-05-27T13:55:07.133Z,27.10
2018-05-27T13:57:34.688Z,27.10
2018-05-27T14:00:02.366Z,27.00
2018-05-27T14:02:30.777Z,27.10
2018-05-27T14:04:58.352Z,27.00
2018-05-27T14:07:25.948Z,27.00
2018-05-27T14:09:53.510Z,27.00
2018-05-27T14:12:21.167Z,27.00
2018-05-27T14:14:49.531Z,27.20
2018-05-27T14:17:17.890Z,27.20
2018-05-27T14:19:45.511Z,27.10
2018-05-27T14:22:13.103Z,27.20
2018-05-27T14:24:40.754Z,27.30
2018-05-27T14:27:08.376Z,27.20
2018-05-27T14:29:36.754Z,27.10
2018-05-27T14:32:04.380Z,27.10
2018-05-27T14:34:31.970Z,27.00
2018-05-27T14:36:59.591Z,26.80
2018-05-27T14:39:27.915Z,26.80
2018-05-27T14:41:55.495Z,26.70
2018-05-27T14:44:23.122Z,26.80
2018-05-27T14:46:51.524Z,26.80
2018-05-27T14:49:19.308Z,26.80
2018-05-27T14:51:47.649Z,26.70
2018-05-27T14:54:15.199Z,26.60
2018-05-27T14:56:42.749Z,26.60
2018-05-27T14:59:10.454Z,26.60
2018-05-27T15:01:38.007Z,26.60
2018-05-27T15:04:06.385Z,26.60
2018-05-27T15:06:34.175Z,26.60
2018-05-27T15:09:01.918Z,26.60
2018-05-27T15:11:29.507Z,26.60
2018-05-27T15:13:57.144Z,26.60
2018-05-27T15:16:24.685Z,26.60
2018-05-27T15:18:53.017Z,26.50
2018-05-27T15:21:20.651Z,26.50
2018-05-27T15:23:48.348Z,26.40
2018-05-27T15:26:15.934Z,26.50
2018-05-27T15:28:43.523Z,26.50
2018-05-27T15:31:11.088Z,26.40
2018-05-27T15:33:38.644Z,26.40
2018-05-27T15:36:06.254Z,26.40
2018-05-27T15:38:33.845Z,26.30
2018-05-27T15:41:01.493Z,26.30
2018-05-27T15:43:29.102Z,26.20
2018-05-27T15:45:56.726Z,26.20
2018-05-27T15:48:24.335Z,26.20
2018-05-27T15:50:53.035Z,26.10
2018-05-27T15:53:20.698Z,26.00
2018-05-27T15:55:48.414Z,26.00
2018-05-27T15:58:15.993Z,26.00
2018-05-27T16:00:43.727Z,25.90
2018-05-27T16:03:11.438Z,25.80
2018-05-27T16:05:39.048Z,25.70
2018-05-27T16:08:06.625Z,25.70
2018-05-27T16:10:34.197Z,25.60
2018-05-27T16:13:01.897Z,25.60
2018-05-27T16:15:30.354Z,25.50
2018-05-27T16:17:59.498Z,25.40
2018-05-27T16:20:27.182Z,25.30
2018-05-27T16:22:54.780Z,25.30
2018-05-27T16:25:22.580Z,25.30
2018-05-27T16:27:50.934Z,25.10
2018-05-27T16:30:18.506Z,25.10
2018-05-27T16:32:46.067Z,25.10
2018-05-27T16:35:13.643Z,25.10
2018-05-27T16:37:41.199Z,25.00
2018-05-27T16:40:08.755Z,25.00
2018-05-27T16:42:36.347Z,25.00
2018-05-27T16:45:03.921Z,24.90
2018-05-27T16:47:31.555Z,24.90
2018-05-27T16:49:59.297Z,24.90
2018-05-27T16:52:26.854Z,24.90
2018-05-27T16:54:54.415Z,24.90
2018-05-27T16:57:22.009Z,24.80
2018-05-27T16:59:49.572Z,24.80
2018-05-27T17:02:17.144Z,24.80
2018-05-27T17:04:44.878Z,24.80
2018-05-27T17:07:13.208Z,24.90
2018-05-27T17:09:40.785Z,24.80
2018-05-27T17:12:08.378Z,24.90
2018-05-27T17:14:35.935Z,24.90
2018-05-27T17:17:04.343Z,24.80
2018-05-27T17:19:31.967Z,24.80
2018-05-27T17:21:59.615Z,24.80
2018-05-27T17:24:27.288Z,24.80
2018-05-27T17:26:55.643Z,24.80
2018-05-27T17:29:23.249Z,24.80
2018-05-27T17:31:50.795Z,24.80
2018-05-27T17:34:18.416Z,24.80
2018-05-27T17:36:46.004Z,24.80
2018-05-27T17:39:14.331Z,24.90
2018-05-27T17:41:42.036Z,24.80
2018-05-27T17:44:09.605Z,24.90
2018-05-27T17:46:38.092Z,25.00
2018-05-27T17:49:05.696Z,25.00
2018-05-27T17:51:34.057Z,25.10
2018-05-27T17:54:01.655Z,25.00
2018-05-27T17:56:30.067Z,25.10
2018-05-27T17:58:58.609Z,25.00
2018-05-27T18:01:26.274Z,25.00
2018-05-27T18:03:54.631Z,25.00
2018-05-27T18:06:22.208Z,25.00
2018-05-27T18:08:49.790Z,25.00
2018-05-27T18:11:17.391Z,25.00
2018-05-27T18:13:44.965Z,24.90
2018-05-27T18:16:12.551Z,24.80
2018-05-27T18:18:40.929Z,24.70
2018-05-27T18:21:08.516Z,24.70
2018-05-27T18:23:36.093Z,24.70
2018-05-27T18:26:04.488Z,24.50
2018-05-27T18:28:32.844Z,24.50
2018-05-27T18:31:00.445Z,24.40
2018-05-27T18:33:28.862Z,24.30
2018-05-27T18:35:56.427Z,24.20
2018-05-27T18:38:24.001Z,24.30
2018-05-27T18:40:51.759Z,24.20
2018-05-27T18:43:19.535Z,24.10
2018-05-27T18:45:47.140Z,24.00
2018-05-27T18:48:14.790Z,23.90
2018-05-27T18:50:43.369Z,23.80
2018-05-27T18:53:11.118Z,23.80
2018-05-27T18:55:39.033Z,23.80
2018-05-27T18:58:07.708Z,23.70
2018-05-27T19:00:35.415Z,23.60
2018-05-27T19:03:04.070Z,23.60
2018-05-27T19:05:32.076Z,23.50
2018-05-27T19:08:00.109Z,23.50
2018-05-27T19:10:28.100Z,23.50
2018-05-27T19:12:55.864Z,23.50
2018-05-27T19:15:23.543Z,23.50
2018-05-27T19:17:51.339Z,23.40
2018-05-27T19:20:19.094Z,23.40
2018-05-27T19:22:46.855Z,23.30
2018-05-27T19:25:14.604Z,23.30
2018-05-27T19:27:42.330Z,23.30
2018-05-27T19:30:09.923Z,23.30
2018-05-27T19:32:38.228Z,23.20
2018-05-27T19:35:05.888Z,23.20
2018-05-27T19:37:33.559Z,23.10
2018-05-27T19:40:01.286Z,23.10
2018-05-27T19:42:28.998Z,23.10
2018-05-27T19:44:56.641Z,23.10
2018-05-27T19:47:24.346Z,23.10
2018-05-27T19:49:51.997Z,23.00
2018-05-27T19:52:20.416Z,22.90
2018-05-27T19:54:48.107Z,22.80
2018-05-27T19:57:15.689Z,22.80
2018-05-27T19:59:43.319Z,22.70
2018-05-27T20:02:10.935Z,22.70
2018-05-27T20:04:38.595Z,22.60
2018-05-27T20:07:06.182Z,22.50
2018-05-27T20:09:33.884Z,22.50
2018-05-27T20:12:01.644Z,22.40
2018-05-27T20:14:29.309Z,22.40
2018-05-27T20:16:56.978Z,22.30
2018-05-27T20:19:24.627Z,22.30
2018-05-27T20:21:52.225Z,22.30
2018-05-27T20:24:19.848Z,22.20
2018-05-27T20:26:48.191Z,22.20
2018-05-27T20:29:15.750Z,22.10
2018-05-27T20:31:43.342Z,22.10
2018-05-27T20:34:11.154Z,22.10
2018-05-27T20:36:39.123Z,22.00
2018-05-27T20:39:06.726Z,22.00
2018-05-27T20:41:35.074Z,22.00
2018-05-27T20:44:02.657Z,21.90
2018-05-27T20:46:30.289Z,21.90
2018-05-27T20:48:57.957Z,22.00
2018-05-27T20:51:25.737Z,21.90
2018-05-27T20:53:53.497Z,21.80
2018-05-27T20:56:21.860Z,21.80
2018-05-27T20:58:49.435Z,21.70
2018-05-27T21:01:17.028Z,21.70
2018-05-27T21:03:45.369Z,21.70
2018-05-27T21:06:13.211Z,21.60
2018-05-27T21:08:41.038Z,21.60
2018-05-27T21:11:08.648Z,21.50
2018-05-27T21:13:36.182Z,21.50
2018-05-27T21:16:03.793Z,21.50
2018-05-27T21:18:32.194Z,21.30
2018-05-27T21:20:59.831Z,21.20
2018-05-27T21:23:27.422Z,21.10
2018-05-27T21:25:55.759Z,21.00
2018-05-27T21:28:23.339Z,20.90
2018-05-27T21:30:50.917Z,20.90
2018-05-27T21:33:18.559Z,20.90
2018-05-27T21:35:46.119Z,20.70
2018-05-27T21:38:14.494Z,20.60
2018-05-27T21:40:42.055Z,20.50
2018-05-27T21:43:09.611Z,20.50
2018-05-27T21:45:37.201Z,20.50
2018-05-27T21:48:04.768Z,20.40
2018-05-27T21:50:32.358Z,20.30
2018-05-27T21:52:59.961Z,20.30
2018-05-27T21:55:27.539Z,20.20
2018-05-27T21:57:55.110Z,20.10
2018-05-27T22:00:22.699Z,20.00
2018-05-27T22:02:50.269Z,19.90
2018-05-27T22:05:18.120Z,19.80
2018-05-27T22:07:46.471Z,19.60
2018-05-27T22:10:14.040Z,19.60
2018-05-27T22:12:41.602Z,19.60
2018-05-27T22:15:09.197Z,19.50
2018-05-27T22:17:36.762Z,19.40
2018-05-27T22:20:04.326Z,19.40
2018-05-27T22:22:31.946Z,19.40
2018-05-27T22:25:00.295Z,19.30
2018-05-27T22:27:27.853Z,19.20
2018-05-27T22:29:55.442Z,19.20
2018-05-27T22:32:23.002Z,19.10
2018-05-27T22:34:50.558Z,19.10
2018-05-27T22:37:18.146Z,19.00
2018-05-27T22:39:45.705Z,19.00
2018-05-27T22:42:13.273Z,19.00
2018-05-27T22:44:40.880Z,18.90
2018-05-27T22:47:08.446Z,18.90
2018-05-27T22:49:36.010Z,18.80
2018-05-27T22:52:03.603Z,18.80
2018-05-27T22:54:31.186Z,18.80
2018-05-27T22:56:58.749Z,18.70
2018-05-27T22:59:26.333Z,18.60
2018-05-27T23:01:53.889Z,18.50
2018-05-27T23:04:21.460Z,18.50
2018-05-27T23:06:49.089Z,18.40
2018-05-27T23:09:16.663Z,18.40
2018-05-27T23:11:44.227Z,18.30
2018-05-27T23:14:12.587Z,18.30
2018-05-27T23:16:40.136Z,18.20
2018-05-27T23:19:07.690Z,18.20
2018-05-27T23:21:35.282Z,18.10
2018-05-27T23:24:02.845Z,18.10
2018-05-27T23:26:30.438Z,18.00
2018-05-27T23:28:58.043Z,17.90
2018-05-27T23:31:26.367Z,17.80
2018-05-27T23:33:53.926Z,17.70
2018-05-27T23:36:21.514Z,17.80
2018-05-27T23:38:49.088Z,17.70
2018-05-27T23:41:16.659Z,17.60
2018-05-27T23:43:44.236Z,17.60
2018-05-27T23:46:11.798Z,17.50
2018-05-27T23:48:39.374Z,17.50
2018-05-27T23:51:06.966Z,17.50
2018-05-27T23:53:34.531Z,17.50
2018-05-27T23:56:02.117Z,17.40
2018-05-27T23:58:29.734Z,17.30
